.
WxDataArchive / Data Records for 2013-04-17
2013-04-16 April 2013 2013-04-18

Data Records for Wednesday, 17 April 2013

Time	Temp	Chill	HIndex	Humid	Dewpt	 Wind 	HiWind	WindDir	Rain 	Barom 
-----	----	-----	------	-----	-----	------	------	-------	-----	----- 
00:00	48.6	48.6	48.6	64	37.0	0	1	315	0.00	30.224 
00:05	48.6	48.6	48.6	64	37.0	0	1	315	0.00	30.224 
00:10	48.6	48.6	48.6	66	37.8	0	1	315	0.01	30.224 
00:15	48.5	48.5	48.5	69	38.8	0	1	315	0.00	30.208 
00:20	48.0	48.0	48.0	72	39.4	0	1	315	0.00	30.208 
00:25	47.6	47.6	47.6	74	39.7	0	0	---	0.00	30.208 
00:30	47.3	47.3	47.3	76	40.1	0	0	---	0.00	30.209 
00:35	47.1	47.1	47.1	77	40.3	0	0	---	0.00	30.209 
00:40	47.0	47.0	47.0	78	40.5	0	0	---	0.00	30.209 
00:45	46.7	46.7	46.7	78	40.2	0	1	315	0.01	30.203 
00:50	46.5	46.5	46.5	78	40.0	0	0	---	0.00	30.203 
00:55	46.5	46.5	46.5	77	39.7	0	1	315	0.00	30.203 
01:00	46.7	46.7	46.7	77	39.9	0	0	---	0.00	30.195 
01:05	46.7	46.7	46.7	77	39.9	0	2	315	0.00	30.195 
01:10	46.8	46.8	46.8	76	39.6	0	0	---	0.00	30.195 
01:15	46.8	46.8	46.8	75	39.3	0	0	---	0.00	30.205 
01:20	47.0	47.0	47.0	75	39.5	0	1	315	0.00	30.205 
01:25	47.1	47.1	47.1	74	39.2	0	1	315	0.00	30.205 
01:30	47.3	47.3	47.3	74	39.4	0	1	315	0.00	30.220 
01:35	47.3	47.3	47.3	74	39.4	0	2	315	0.00	30.220 
01:40	47.4	47.4	47.4	74	39.5	0	1	315	0.00	30.220 
01:45	47.3	47.3	47.3	73	39.1	0	0	---	0.00	30.215 
01:50	47.4	47.4	47.4	73	39.2	0	1	315	0.00	30.215 
01:55	47.6	47.6	47.6	70	38.3	0	2	315	0.00	30.215 
02:00	47.7	47.7	47.7	70	38.4	0	1	315	0.00	30.217 
02:05	47.7	47.7	47.7	69	38.0	0	2	315	0.00	30.217 
02:10	47.9	47.9	47.9	70	38.6	0	2	315	0.00	30.217 
02:15	47.9	47.9	47.9	70	38.6	0	3	315	0.00	30.211 
02:20	47.9	47.9	47.9	69	38.2	0	3	90	0.00	30.211 
02:25	47.9	47.9	47.9	69	38.2	0	3	90	0.00	30.211 
02:30	47.9	47.9	47.9	69	38.2	0	2	90	0.00	30.211 
02:35	47.9	47.9	47.9	69	38.2	0	1	90	0.00	30.211 
02:40	47.9	47.9	47.9	69	38.2	0	2	90	0.00	30.211 
02:45	47.9	47.9	47.9	69	38.2	0	4	90	0.00	30.209 
02:50	48.0	48.0	48.0	68	37.9	0	4	90	0.00	30.209 
02:55	48.0	48.0	48.0	68	37.9	0	3	90	0.00	30.209 
03:00	48.0	48.0	48.0	68	37.9	0	2	90	0.00	30.212 
03:05	48.0	48.0	48.0	69	38.3	0	2	90	0.00	30.212 
03:10	48.0	48.0	48.0	68	37.9	0	2	90	0.00	30.212 
03:15	48.0	48.0	48.0	68	37.9	0	1	90	0.00	30.228 
03:20	48.0	48.0	48.0	68	37.9	0	2	90	0.00	30.228 
03:25	48.0	48.0	48.0	68	37.9	0	3	90	0.00	30.228 
03:30	48.0	48.0	48.0	69	38.3	0	3	90	0.00	30.219 
03:35	48.0	48.0	48.0	68	37.9	0	1	90	0.00	30.219 
03:40	48.0	48.0	48.0	68	37.9	0	1	90	0.00	30.219 
03:45	48.0	48.0	48.0	68	37.9	0	1	90	0.00	30.232 
03:50	47.9	47.9	47.9	67	37.5	0	1	90	0.00	30.232 
03:55	47.9	47.9	47.9	67	37.5	0	3	90	0.00	30.232 
04:00	48.0	48.0	48.0	67	37.6	0	2	90	0.00	30.224 
04:05	48.0	48.0	48.0	67	37.6	0	2	90	0.00	30.224 
04:10	48.0	48.0	48.0	67	37.6	0	1	90	0.00	30.224 
04:15	48.0	48.0	48.0	67	37.6	0	2	90	0.00	30.226 
04:20	48.0	48.0	48.0	67	37.6	0	3	90	0.00	30.226 
04:25	48.0	48.0	48.0	67	37.6	0	2	90	0.00	30.226 
04:30	48.0	48.0	48.0	67	37.6	0	2	90	0.00	30.219 
04:35	48.0	48.0	48.0	67	37.6	0	3	90	0.00	30.219 
04:40	48.0	48.0	48.0	67	37.6	0	2	90	0.00	30.219 
04:45	48.0	48.0	48.0	67	37.6	0	2	90	0.00	30.223 
04:50	48.0	48.0	48.0	67	37.6	0	3	90	0.00	30.223 
04:55	48.0	48.0	48.0	67	37.6	0	3	338	0.00	30.223 
05:00	48.0	48.0	48.0	67	37.6	1	4	68	0.00	30.224 
05:05	48.2	48.2	48.2	67	37.8	1	4	68	0.00	30.224 
05:10	48.2	48.2	48.2	67	37.8	1	4	90	0.00	30.224 
05:15	48.2	48.2	48.2	67	37.8	1	4	112	0.00	30.226 
05:20	48.2	48.2	48.2	67	37.8	1	3	112	0.00	30.226 
05:25	48.2	48.2	48.2	67	37.8	1	4	112	0.00	30.226 
05:30	48.2	48.2	48.2	68	38.1	1	5	112	0.00	30.232 
05:35	48.2	48.2	48.2	68	38.1	1	6	112	0.00	30.232 
05:40	48.2	48.2	48.2	68	38.1	2	5	112	0.00	30.232 
05:45	48.2	48.2	48.2	68	38.1	2	5	112	0.00	30.239 
05:50	48.3	48.3	48.3	68	38.2	1	4	112	0.00	30.239 
05:55	48.3	48.3	48.3	68	38.2	1	3	68	0.00	30.239 
06:00	48.3	48.3	48.3	68	38.2	3	10	112	0.00	30.229 
06:05	48.3	48.3	48.3	69	38.6	3	9	112	0.00	30.229 
06:10	48.3	48.3	48.3	70	39.0	1	5	112	0.00	30.229 
06:15	48.3	48.3	48.3	71	39.3	2	9	112	0.00	30.236 
06:20	48.2	48.2	48.2	72	39.6	2	5	112	0.00	30.236 
06:25	48.0	48.0	48.0	73	39.8	3	10	90	0.00	30.236 
06:30	47.9	47.9	47.9	73	39.7	3	12	112	0.00	30.232 
06:35	47.7	47.7	47.7	75	40.2	2	7	90	0.00	30.232 
06:40	47.6	47.6	47.6	75	40.1	2	7	90	0.00	30.232 
06:45	47.4	47.4	47.4	76	40.2	2	6	90	0.00	30.243 
06:50	47.4	45.9	47.4	76	40.2	4	9	90	0.00	30.243 
06:55	47.3	45.8	47.3	77	40.5	4	10	112	0.00	30.243 
07:00	47.0	47.0	47.0	77	40.2	3	9	90	0.00	30.239 
07:05	46.8	46.8	46.8	77	40.0	2	7	112	0.00	30.239 
07:10	46.7	46.7	46.7	77	39.9	3	12	112	0.00	30.239 
07:15	46.5	46.5	46.5	77	39.7	3	7	135	0.00	30.241 
07:20	46.4	46.4	46.4	77	39.6	2	10	112	0.00	30.241 
07:25	46.2	46.2	46.2	77	39.4	3	11	112	0.00	30.241 
07:30	46.1	44.4	46.1	77	39.3	4	11	112	0.00	30.245 
07:35	46.0	46.0	46.0	76	38.9	2	6	90	0.00	30.245 
07:40	45.8	45.8	45.8	75	38.3	3	13	90	0.00	30.245 
07:45	45.7	45.7	45.7	75	38.2	3	12	112	0.00	30.252 
07:50	45.5	43.7	45.5	74	37.7	4	10	90	0.00	30.252 
07:55	45.5	43.7	45.5	74	37.7	4	10	90	0.00	30.252 
08:00	45.4	43.6	45.4	74	37.6	4	11	112	0.00	30.246 
08:05	45.4	42.8	45.4	75	37.9	5	12	112	0.00	30.246 
08:10	45.4	45.4	45.4	75	37.9	3	10	90	0.00	30.246 
08:15	45.4	45.4	45.4	75	37.9	3	7	112	0.00	30.246 
08:20	45.5	43.7	45.5	75	38.0	4	9	112	0.00	30.246 
08:25	45.7	45.7	45.7	74	37.9	3	10	90	0.00	30.246 
08:30	46.0	42.9	46.0	73	37.8	6	12	90	0.00	30.244 
08:35	46.1	44.4	46.1	73	37.9	4	11	90	0.00	30.244 
08:40	46.2	44.5	46.2	73	38.0	4	12	112	0.00	30.244 
08:45	46.4	46.4	46.4	73	38.2	3	10	112	0.00	30.246 
08:50	46.5	44.8	46.5	73	38.3	4	10	90	0.00	30.246 
08:55	46.7	44.3	46.7	73	38.5	5	10	90	0.00	30.246 
09:00	46.7	43.7	46.7	73	38.5	6	12	112	0.00	30.246 
09:05	46.7	44.3	46.7	73	38.5	5	11	90	0.00	30.246 
09:10	46.8	44.5	46.8	74	39.0	5	10	90	0.00	30.246 
09:15	47.0	44.7	47.0	74	39.1	5	14	90	0.00	30.250 
09:20	47.3	44.5	47.3	75	39.8	6	14	112	0.00	30.250 
09:25	47.3	43.9	47.3	75	39.8	7	15	90	0.00	30.250 
09:30	47.4	43.6	47.4	75	39.9	8	13	90	0.00	30.246 
09:35	47.6	44.8	47.6	75	40.1	6	12	90	0.00	30.246 
09:40	47.6	44.8	47.6	76	40.4	6	12	112	0.00	30.246 
09:45	47.9	45.2	47.9	77	41.0	6	13	90	0.00	30.232 
09:50	48.0	43.9	48.0	77	41.1	9	19	90	0.00	30.232 
09:55	48.5	46.5	48.5	78	42.0	5	11	112	0.00	30.232 
10:00	48.9	45.4	48.9	75	41.3	8	16	90	0.00	30.240 
10:05	48.9	45.4	48.9	75	41.3	8	15	90	0.00	30.240 
10:10	49.4	47.0	49.4	75	41.8	6	13	90	0.00	30.240 
10:15	49.8	46.5	49.8	73	41.5	8	16	90	0.00	30.243 
10:20	49.9	47.5	49.9	74	41.9	6	14	112	0.00	30.243 
10:25	50.2	50.2	50.2	72	41.5	7	15	90	0.00	30.243 
10:30	49.9	46.3	49.9	73	41.6	9	17	90	0.00	30.236 
10:35	49.9	46.6	49.9	73	41.6	8	16	90	0.00	30.236 
10:40	50.2	50.2	50.2	73	41.9	7	13	90	0.00	30.236 
10:45	50.2	50.2	50.2	73	41.9	8	17	112	0.00	30.231 
10:50	50.2	50.2	50.2	73	41.9	9	17	90	0.00	30.231 
10:55	51.0	51.0	51.0	72	42.3	7	17	112	0.00	30.231 
11:00	51.1	51.1	51.1	72	42.4	7	17	90	0.00	30.228 
11:05	50.8	50.8	50.8	73	42.5	7	13	112	0.00	30.228 
11:10	50.8	50.8	50.8	74	42.8	7	12	90	0.00	30.228 
11:15	51.6	51.6	51.6	72	42.9	7	12	90	0.00	30.234 
11:20	52.2	52.2	52.2	71	43.1	7	15	90	0.00	30.234 
11:25	52.2	52.2	52.2	71	43.1	7	12	90	0.00	30.234 
11:30	52.8	52.8	52.8	72	44.0	6	12	90	0.00	30.226 
11:35	52.9	52.9	52.9	72	44.1	6	16	90	0.00	30.226 
11:40	52.8	52.8	52.8	72	44.0	7	13	90	0.00	30.226 
11:45	52.8	52.8	52.8	72	44.0	6	12	90	0.00	30.223 
11:50	52.8	52.8	52.8	71	43.7	6	18	90	0.00	30.223 
11:55	53.1	53.1	53.1	71	43.9	6	12	90	0.00	30.223 
12:00	53.1	53.1	53.1	70	43.6	7	13	90	0.00	30.226 
12:05	53.3	53.3	53.3	69	43.4	6	12	112	0.00	30.226 
12:10	53.3	53.3	53.3	69	43.4	5	11	90	0.00	30.226 
12:15	53.3	53.3	53.3	69	43.4	7	13	112	0.00	30.218 
12:20	53.3	53.3	53.3	69	43.4	6	12	112	0.00	30.218 
12:25	53.3	53.3	53.3	68	43.0	5	14	90	0.00	30.218 
12:30	53.3	53.3	53.3	68	43.0	6	11	90	0.00	30.218 
12:35	53.2	53.2	53.2	68	42.9	6	12	90	0.00	30.218 
12:40	53.1	53.1	53.1	69	43.2	7	12	90	0.00	30.218 
12:45	53.2	53.2	53.2	69	43.3	4	10	90	0.00	30.211 
12:50	53.1	53.1	53.1	69	43.2	6	11	90	0.00	30.211 
12:55	52.9	52.9	52.9	68	42.6	6	13	90	0.00	30.211 
13:00	52.9	52.9	52.9	69	43.0	5	10	90	0.00	30.202 
13:05	52.9	52.9	52.9	69	43.0	3	6	90	0.00	30.202 
13:10	52.9	52.9	52.9	69	43.0	4	9	90	0.00	30.202 
13:15	52.9	52.9	52.9	69	43.0	4	10	90	0.00	30.196 
13:20	52.9	52.9	52.9	67	42.2	7	14	90	0.00	30.196 
13:25	53.1	53.1	53.1	67	42.4	6	13	90	0.00	30.196 
13:30	53.1	53.1	53.1	68	42.8	7	14	90	0.00	30.180 
13:35	53.3	53.3	53.3	69	43.4	5	12	90	0.00	30.180 
13:40	53.8	53.8	53.8	67	43.1	6	13	90	0.00	30.180 
13:45	53.9	53.9	53.9	65	42.4	8	15	90	0.00	30.170 
13:50	54.1	54.1	54.1	66	43.0	9	19	90	0.00	30.170 
13:55	54.2	54.2	54.2	65	42.7	9	17	90	0.00	30.170 
14:00	54.2	54.2	54.2	65	42.7	7	16	90	0.00	30.166 
14:05	54.2	54.2	54.2	66	43.1	6	12	90	0.00	30.166 
14:10	54.2	54.2	54.2	65	42.7	8	14	112	0.00	30.166 
14:15	54.5	54.5	54.5	66	43.4	6	13	90	0.00	30.160 
14:20	54.4	54.4	54.4	66	43.3	6	12	90	0.00	30.160 
14:25	54.4	54.4	54.4	66	43.3	7	15	112	0.00	30.160 
14:30	54.2	54.2	54.2	65	42.7	6	14	90	0.00	30.154 
14:35	54.2	54.2	54.2	67	43.5	5	11	90	0.00	30.154 
14:40	54.2	54.2	54.2	65	42.7	6	14	90	0.00	30.154 
14:45	54.2	54.2	54.2	66	43.1	5	14	90	0.00	30.146 
14:50	54.1	54.1	54.1	67	43.4	6	14	90	0.00	30.146 
14:55	54.2	54.2	54.2	65	42.7	7	15	90	0.00	30.146 
15:00	54.1	54.1	54.1	64	42.2	8	18	90	0.00	30.146 
15:05	54.1	54.1	54.1	66	43.0	5	12	90	0.00	30.146 
15:10	54.1	54.1	54.1	66	43.0	7	13	90	0.00	30.146 
15:15	54.1	54.1	54.1	65	42.6	8	17	90	0.00	30.137 
15:20	54.2	54.2	54.2	65	42.7	6	12	112	0.00	30.137 
15:25	54.4	54.4	54.4	65	42.9	5	10	90	0.00	30.137 
15:30	54.5	54.5	54.5	65	43.0	6	16	90	0.00	30.127 
15:35	54.4	54.4	54.4	65	42.9	7	17	90	0.00	30.127 
15:40	54.1	54.1	54.1	64	42.2	8	16	90	0.00	30.127 
15:45	54.1	54.1	54.1	65	42.6	8	16	112	0.00	30.114 
15:50	54.1	54.1	54.1	64	42.2	9	16	90	0.00	30.114 
15:55	54.2	54.2	54.2	65	42.7	8	17	112	0.00	30.114 
16:00	54.2	54.2	54.2	65	42.7	5	11	112	0.00	30.113 
16:05	54.2	54.2	54.2	66	43.1	5	15	90	0.00	30.113 
16:10	54.2	54.2	54.2	64	42.3	7	16	90	0.00	30.113 
16:15	54.1	54.1	54.1	66	43.0	7	13	90	0.00	30.103 
16:20	54.1	54.1	54.1	65	42.6	6	13	90	0.00	30.103 
16:25	54.1	54.1	54.1	66	43.0	8	14	90	0.00	30.103 
16:30	53.9	53.9	53.9	66	42.8	6	15	90	0.00	30.089 
16:35	53.9	53.9	53.9	67	43.2	7	19	90	0.00	30.089 
16:40	54.1	54.1	54.1	67	43.4	7	13	90	0.00	30.089 
16:45	54.1	54.1	54.1	68	43.8	7	16	112	0.00	30.068 
16:50	54.1	54.1	54.1	68	43.8	6	12	90	0.00	30.068 
16:55	54.2	54.2	54.2	68	43.9	5	11	90	0.00	30.068 
17:00	54.4	54.4	54.4	68	44.1	5	13	90	0.00	30.062 
17:05	54.2	54.2	54.2	69	44.3	5	14	90	0.00	30.062 
17:10	54.2	54.2	54.2	69	44.3	7	13	90	0.00	30.062 
17:15	54.1	54.1	54.1	70	44.5	6	11	90	0.00	30.051 
17:20	54.1	54.1	54.1	70	44.5	4	10	90	0.00	30.051 
17:25	54.1	54.1	54.1	71	44.9	4	10	90	0.00	30.051 
17:30	53.9	53.9	53.9	71	44.7	5	11	90	0.00	30.044 
17:35	53.9	53.9	53.9	71	44.7	5	10	90	0.00	30.044 
17:40	53.9	53.9	53.9	71	44.7	5	14	90	0.00	30.044 
17:45	53.9	53.9	53.9	71	44.7	6	12	90	0.00	30.044 
17:50	53.9	53.9	53.9	72	45.1	5	12	90	0.00	30.044 
17:55	54.1	54.1	54.1	71	44.9	5	11	90	0.00	30.044 
18:00	54.1	54.1	54.1	72	45.3	5	10	90	0.00	30.051 
18:05	53.9	53.9	53.9	71	44.7	7	11	90	0.00	30.051 
18:10	53.9	53.9	53.9	72	45.1	6	15	90	0.00	30.051 
18:15	53.8	53.8	53.8	72	45.0	5	9	90	0.00	30.051 
18:20	53.9	53.9	53.9	72	45.1	5	11	90	0.00	30.051 
18:25	53.9	53.9	53.9	72	45.1	5	12	90	0.00	30.051 
18:30	53.9	53.9	53.9	73	45.4	4	10	90	0.00	30.052 
18:35	53.9	53.9	53.9	72	45.1	5	11	90	0.00	30.052 
18:40	53.9	53.9	53.9	72	45.1	6	12	90	0.00	30.052 
18:45	53.8	53.8	53.8	71	44.6	6	14	90	0.00	30.037 
18:50	53.8	53.8	53.8	71	44.6	7	14	90	0.00	30.037 
18:55	53.6	53.6	53.6	72	44.8	7	12	90	0.00	30.037 
19:00	53.6	53.6	53.6	72	44.8	5	12	90	0.00	30.039 
19:05	53.6	53.6	53.6	72	44.8	5	11	90	0.00	30.039 
19:10	53.5	53.5	53.5	72	44.7	4	11	90	0.00	30.039 
19:15	53.3	53.3	53.3	71	44.1	5	9	90	0.00	30.038 
19:20	53.2	53.2	53.2	71	44.0	6	12	90	0.00	30.038 
19:25	53.1	53.1	53.1	71	43.9	5	10	90	0.00	30.038 
19:30	52.9	52.9	52.9	71	43.8	5	9	90	0.00	30.025 
19:35	52.8	52.8	52.8	71	43.7	5	11	90	0.00	30.025 
19:40	52.6	52.6	52.6	72	43.8	5	13	112	0.00	30.025 
19:45	52.5	52.5	52.5	72	43.7	6	16	90	0.00	30.009 
19:50	52.3	52.3	52.3	72	43.5	6	11	90	0.00	30.009 
19:55	52.2	52.2	52.2	72	43.4	6	11	90	0.00	30.009 
20:00	52.2	52.2	52.2	72	43.4	3	6	112	0.00	30.011 
20:05	52.0	52.0	52.0	73	43.6	4	11	90	0.00	30.011 
20:10	51.9	51.9	51.9	72	43.2	5	11	90	0.00	30.011 
20:15	51.9	51.9	51.9	72	43.2	4	10	90	0.00	30.004 
20:20	51.7	51.7	51.7	70	42.2	5	14	90	0.00	30.004 
20:25	51.7	51.7	51.7	71	42.6	4	7	90	0.00	30.004 
20:30	51.7	51.7	51.7	71	42.6	4	11	90	0.00	29.989 
20:35	51.6	51.6	51.6	71	42.5	4	12	90	0.00	29.989 
20:40	51.6	51.6	51.6	71	42.5	4	11	90	0.00	29.989 
20:45	51.4	51.4	51.4	72	42.7	5	12	90	0.00	29.965 
20:50	51.3	51.3	51.3	70	41.9	6	12	90	0.00	29.965 
20:55	51.3	51.3	51.3	71	42.2	4	10	90	0.00	29.965 
21:00	51.1	51.1	51.1	71	42.0	4	10	90	0.00	29.970 
21:05	51.0	51.0	51.0	70	41.6	3	7	90	0.00	29.970 
21:10	50.8	50.8	50.8	69	41.0	4	9	90	0.00	29.970 
21:15	50.7	50.7	50.7	69	40.9	4	10	112	0.00	29.983 
21:20	50.5	50.5	50.5	68	40.3	3	9	90	0.00	29.983 
21:25	50.5	50.5	50.5	69	40.7	2	5	90	0.00	29.983 
21:30	50.5	50.5	50.5	69	40.7	1	4	90	0.00	30.006 
21:35	50.5	50.5	50.5	68	40.3	1	4	45	0.00	30.006 
21:40	50.7	50.7	50.7	69	40.9	2	5	0	0.00	30.006 
21:45	50.7	50.7	50.7	69	40.9	3	6	338	0.00	30.083 
21:50	50.5	50.5	50.5	67	40.0	2	4	0	0.00	30.083 
21:55	50.2	50.2	50.2	65	38.9	2	10	0	0.00	30.083 
22:00	49.9	49.9	49.9	64	38.2	3	12	338	0.00	30.072 
22:05	49.8	49.8	49.8	64	38.1	2	6	338	0.00	30.072 
22:10	49.5	49.5	49.5	63	37.4	3	6	338	0.00	30.072 
22:15	49.4	49.4	49.4	63	37.3	2	9	338	0.00	30.069 
22:20	49.2	47.9	49.2	63	37.1	4	12	112	0.00	30.069 
22:25	49.1	49.1	49.1	63	37.1	3	9	45	0.00	30.069 
22:30	48.8	48.8	48.8	65	37.6	2	6	0	0.00	30.056 
22:35	48.5	48.5	48.5	68	38.4	3	6	112	0.00	30.056 
22:40	48.0	48.0	48.0	69	38.3	2	5	90	0.00	30.056 
22:45	47.6	47.6	47.6	72	39.0	2	6	68	0.01	30.042 
22:50	47.1	47.1	47.1	73	38.9	2	7	45	0.00	30.042 
22:55	46.7	46.7	46.7	76	39.5	1	3	112	0.01	30.042 
23:00	46.4	46.4	46.4	78	39.9	2	7	90	0.01	30.025 
23:05	46.0	46.0	46.0	79	39.9	2	10	112	0.00	30.025 
23:10	45.8	45.8	45.8	80	40.0	2	6	90	0.00	30.025 
23:15	45.7	43.9	45.7	80	39.9	4	11	112	0.00	30.006 
23:20	45.7	43.2	45.7	80	39.9	5	12	112	0.00	30.006 
23:25	45.7	43.9	45.7	80	39.9	4	11	112	0.00	30.006 
23:30	45.8	43.3	45.8	80	40.0	5	14	112	0.00	30.000 
23:35	45.8	43.3	45.8	80	40.0	5	12	112	0.00	30.000 
23:40	45.8	43.3	45.8	80	40.0	5	14	112	0.00	30.000 
23:45	45.8	43.3	45.8	80	40.0	5	10	90	0.00	29.981 
23:50	45.7	41.5	45.7	80	39.9	8	15	112	0.00	29.981 
23:55	45.7	42.0	45.7	80	39.9	7	14	112	0.00	29.981 

CoCoRaHS
IN-AL-39
A2 Web Hosting
Creative Commons License
GoDaddy
search engine by freefind advanced

loaded 2018-11-20 06:47:30 • last modified 2010-11-18 10:43:29
Privacy PolicyDisclaimer
• wx.awcolley.com is powered by PmWiki v.2002016 •
• all content (unless otherwise noted) © 2018 A W Colley